Time;durP1;ratioP1;P1;durP2;ratioP2;P2;SDS_P1;SDS_P2;PMS_P1;PMS_P2;Temp;Humidity;BMP_temperature;BMP_pressure;BME280_temperature;BME280_humidity;BME280_pressure;Samples;Min_cycle;Max_cycle;Signal;HPM_P1;HPM_P2
2022/03/26 00:00:48;;;;;;;33.58;19.17;;;12.80;64.40;;;;;;4992188;28;20085;-62
2022/03/26 00:03:14;;;;;;;34.53;19.13;;;12.80;64.70;;;;;;4995036;28;20123;-62
2022/03/26 00:05:41;;;;;;;32.38;19.13;;;12.80;64.70;;;;;;4990448;28;20049;-62
2022/03/26 00:08:07;;;;;;;32.25;19.08;;;12.80;64.70;;;;;;4992999;28;20039;-63
2022/03/26 00:10:33;;;;;;;33.22;18.05;;;12.80;64.70;;;;;;4991806;28;20019;-63
2022/03/26 00:12:59;;;;;;;32.95;18.92;;;12.70;64.80;;;;;;5009380;28;20025;-63
2022/03/26 00:15:25;;;;;;;32.28;19.88;;;12.70;65.00;;;;;;5007588;28;20069;-62
2022/03/26 00:17:51;;;;;;;35.80;20.05;;;12.70;65.10;;;;;;5007085;28;20072;-62
2022/03/26 00:20:16;;;;;;;31.52;19.15;;;12.60;65.00;;;;;;5007422;28;20449;-62
2022/03/26 00:22:42;;;;;;;35.20;21.45;;;12.60;65.10;;;;;;4995359;28;20465;-62
2022/03/26 00:25:09;;;;;;;33.63;20.08;;;12.60;65.20;;;;;;4992316;28;20026;-63
2022/03/26 00:27:35;;;;;;;35.67;19.10;;;12.50;65.30;;;;;;4991428;28;20026;-62
2022/03/26 00:30:02;;;;;;;34.03;19.92;;;12.50;65.40;;;;;;4991506;28;20033;-62
2022/03/26 00:32:27;;;;;;;34.33;19.92;;;12.50;65.50;;;;;;4995327;28;20113;-62
2022/03/26 00:34:53;;;;;;;34.95;20.40;;;12.40;65.70;;;;;;4990569;28;20065;-63
2022/03/26 00:37:18;;;;;;;31.88;20.02;;;12.40;65.80;;;;;;5003920;28;20025;-62
2022/03/26 00:39:44;;;;;;;34.72;19.88;;;12.40;66.00;;;;;;5002141;28;20500;-62
2022/03/26 00:42:10;;;;;;;32.58;19.00;;;12.30;66.20;;;;;;5009499;28;20526;-62
2022/03/26 00:44:36;;;;;;;36.42;19.55;;;12.40;66.10;;;;;;4998958;28;20436;-62
2022/03/26 00:47:02;;;;;;;32.47;19.05;;;12.40;66.30;;;;;;5000186;28;20066;-62
2022/03/26 00:49:28;;;;;;;40.38;19.17;;;12.30;66.30;;;;;;5011155;28;20046;-61
2022/03/26 00:51:53;;;;;;;37.45;20.98;;;12.30;66.40;;;;;;5001689;28;20383;-62
2022/03/26 00:54:19;;;;;;;36.45;19.25;;;12.30;66.50;;;;;;4991335;28;20026;-62
2022/03/26 00:56:44;;;;;;;34.35;19.88;;;12.30;66.70;;;;;;4992460;28;20541;-62
2022/03/26 00:59:10;;;;;;;34.22;19.45;;;12.30;66.70;;;;;;4991471;28;20042;-62
2022/03/26 01:01:36;;;;;;;38.13;21.15;;;12.30;66.60;;;;;;4993193;28;20105;-62
2022/03/26 01:04:02;;;;;;;33.00;19.85;;;12.30;66.70;;;;;;4991287;28;20478;-62
2022/03/26 01:06:28;;;;;;;31.90;18.50;;;12.30;66.90;;;;;;4996562;28;20046;-62
2022/03/26 01:08:54;;;;;;;30.85;17.00;;;12.20;66.80;;;;;;5011129;28;20030;-62
2022/03/26 01:11:20;;;;;;;31.27;18.27;;;12.30;66.90;;;;;;5008983;28;20037;-63
2022/03/26 01:13:49;;;;;;;31.02;20.00;;;12.20;66.90;;;;;;5009746;28;20036;-62
2022/03/26 01:16:15;;;;;;;30.73;17.52;;;12.20;67.00;;;;;;5001355;28;20026;-62
2022/03/26 01:18:41;;;;;;;31.55;18.25;;;12.20;67.10;;;;;;4991064;28;20038;-62
2022/03/26 01:21:07;;;;;;;31.55;18.15;;;12.10;67.20;;;;;;4993442;28;20036;-62
2022/03/26 01:23:34;;;;;;;27.95;17.63;;;12.10;67.20;;;;;;4999973;28;20030;-63
2022/03/26 01:25:59;;;;;;;30.60;18.10;;;12.10;67.20;;;;;;4996775;28;20038;-63
2022/03/26 01:28:26;;;;;;;27.23;17.08;;;12.10;67.40;;;;;;5002543;28;20026;-62
2022/03/26 01:30:52;;;;;;;26.98;16.48;;;12.10;67.50;;;;;;4994632;28;20061;-62
2022/03/26 01:33:18;;;;;;;35.10;18.42;;;12.00;67.60;;;;;;4997905;28;20026;-63
2022/03/26 01:35:43;;;;;;;26.73;16.63;;;12.00;67.60;;;;;;5011404;28;20045;-62
2022/03/26 01:38:09;;;;;;;30.70;17.27;;;12.00;67.70;;;;;;5004942;28;20100;-62
2022/03/26 01:40:35;;;;;;;33.13;19.33;;;12.00;67.70;;;;;;4996444;28;20072;-62
2022/03/26 01:43:01;;;;;;;31.40;18.75;;;12.00;67.80;;;;;;5012996;28;20137;-63
2022/03/26 01:45:28;;;;;;;33.30;17.05;;;12.00;67.80;;;;;;5010181;28;20034;-62
2022/03/26 01:47:55;;;;;;;31.17;17.17;;;11.90;67.90;;;;;;5011774;28;20073;-62
2022/03/26 01:50:21;;;;;;;30.63;17.23;;;11.90;68.00;;;;;;5011251;28;20030;-62
2022/03/26 01:52:46;;;;;;;28.52;18.00;;;11.90;68.10;;;;;;5010441;28;20469;-63
2022/03/26 01:55:12;;;;;;;31.92;17.08;;;11.90;68.20;;;;;;5002501;28;20042;-62
2022/03/26 01:57:38;;;;;;;29.83;16.13;;;11.90;68.30;;;;;;5008903;28;20022;-62
2022/03/26 02:00:08;;;;;;;32.38;16.63;;;11.80;68.30;;;;;;5005954;28;20042;-62
2022/03/26 02:02:34;;;;;;;30.63;17.85;;;11.80;68.50;;;;;;5012201;28;20119;-62
2022/03/26 02:05:02;;;;;;;32.83;18.08;;;11.80;68.50;;;;;;4996637;28;20394;-62
2022/03/26 02:07:28;;;;;;;31.02;18.38;;;11.80;68.50;;;;;;5007570;28;20042;-62
2022/03/26 02:09:53;;;;;;;32.70;18.00;;;11.80;68.50;;;;;;5001553;28;20394;-62
2022/03/26 02:12:23;;;;;;;33.50;17.90;;;11.80;68.50;;;;;;5006530;28;20191;-62
2022/03/26 02:14:49;;;;;;;34.13;17.27;;;11.80;68.50;;;;;;4998154;28;20403;-62
2022/03/26 02:17:16;;;;;;;33.38;17.33;;;11.70;68.50;;;;;;5004801;28;20653;-63
2022/03/26 02:19:48;;;;;;;29.88;17.73;;;11.70;68.50;;;;;;5011622;28;20049;-63
2022/03/26 02:22:15;;;;;;;33.65;18.00;;;11.70;68.60;;;;;;5005642;28;20030;-63
2022/03/26 02:24:40;;;;;;;32.20;17.58;;;11.70;68.50;;;;;;5012243;28;20108;-62
2022/03/26 02:27:07;;;;;;;32.05;18.50;;;11.70;68.60;;;;;;5004303;28;20030;-63
2022/03/26 02:29:32;;;;;;;32.10;18.48;;;11.70;68.70;;;;;;5013520;28;20493;-63
2022/03/26 02:31:58;;;;;;;37.38;19.45;;;11.70;68.80;;;;;;5005063;28;20053;-63
2022/03/26 02:34:33;;;;;;;33.65;19.08;;;11.70;68.80;;;;;;4993889;28;20022;-63
2022/03/26 02:36:59;;;;;;;30.45;18.55;;;11.60;69.10;;;;;;4997764;28;20117;-62
2022/03/26 02:39:25;;;;;;;29.13;17.52;;;11.60;69.20;;;;;;4993827;28;20117;-63
2022/03/26 02:41:50;;;;;;;29.33;17.30;;;11.60;69.50;;;;;;5001661;28;20029;-62
2022/03/26 02:44:16;;;;;;;30.55;18.00;;;11.50;69.40;;;;;;5026627;28;20041;-62
2022/03/26 02:46:45;;;;;;;36.58;18.88;;;11.50;69.40;;;;;;5011773;28;20496;-62
2022/03/26 02:49:11;;;;;;;34.67;19.38;;;11.50;69.50;;;;;;5009773;28;20392;-62
2022/03/26 02:51:36;;;;;;;41.58;19.85;;;11.50;69.60;;;;;;5000293;28;20034;-62
2022/03/26 02:54:01;;;;;;;33.28;17.85;;;11.50;69.60;;;;;;4995120;28;20035;-62
2022/03/26 02:56:27;;;;;;;31.35;17.73;;;11.50;69.60;;;;;;4993502;28;20552;-63
2022/03/26 02:58:52;;;;;;;32.92;18.85;;;11.50;69.70;;;;;;4993470;28;20486;-62
2022/03/26 03:01:19;;;;;;;31.52;18.40;;;11.50;69.80;;;;;;4997510;28;20030;-62
2022/03/26 03:03:45;;;;;;;36.45;18.65;;;11.40;69.70;;;;;;5010552;28;20133;-63
2022/03/26 03:06:10;;;;;;;34.50;19.67;;;11.40;69.90;;;;;;4996087;28;20494;-62
2022/03/26 03:08:37;;;;;;;34.85;17.98;;;11.40;70.00;;;;;;5011818;28;20022;-63
2022/03/26 03:11:02;;;;;;;31.00;17.95;;;11.40;70.00;;;;;;4997696;28;20068;-62
2022/03/26 03:13:28;;;;;;;31.45;17.75;;;11.40;70.20;;;;;;4993415;28;20053;-62
2022/03/26 03:15:53;;;;;;;33.92;18.52;;;11.40;70.20;;;;;;4994306;28;20113;-63
2022/03/26 03:18:19;;;;;;;34.28;19.48;;;11.30;70.20;;;;;;5012829;28;20042;-62
2022/03/26 03:20:45;;;;;;;32.35;19.65;;;11.40;70.40;;;;;;5006455;28;20490;-62
2022/03/26 03:23:11;;;;;;;31.65;18.67;;;11.40;70.60;;;;;;5012261;28;20122;-62
2022/03/26 03:25:38;;;;;;;33.50;19.90;;;11.40;70.80;;;;;;5006770;28;20073;-63
2022/03/26 03:28:05;;;;;;;30.50;18.83;;;11.30;71.00;;;;;;5009323;28;20525;-62
2022/03/26 03:30:30;;;;;;;31.67;18.00;;;11.30;71.10;;;;;;4993075;28;20316;-62
2022/03/26 03:32:56;;;;;;;33.55;18.92;;;11.30;71.10;;;;;;4996986;28;20065;-62
2022/03/26 03:35:22;;;;;;;37.15;18.80;;;11.30;71.20;;;;;;5001351;28;20474;-62
2022/03/26 03:37:48;;;;;;;31.00;19.98;;;11.30;71.30;;;;;;5010926;28;20140;-62
2022/03/26 03:40:14;;;;;;;32.50;18.40;;;11.20;71.50;;;;;;4992156;28;20526;-63
2022/03/26 03:42:40;;;;;;;33.67;19.52;;;11.20;71.60;;;;;;5010962;28;20026;-63
2022/03/26 03:45:06;;;;;;;31.48;18.17;;;11.30;71.70;;;;;;4993859;28;20038;-62
2022/03/26 03:47:32;;;;;;;31.70;19.02;;;11.30;71.80;;;;;;5006368;28;20030;-62
2022/03/26 03:49:57;;;;;;;38.28;20.08;;;11.30;72.00;;;;;;5012168;28;20359;-62
2022/03/26 03:52:23;;;;;;;35.05;18.38;;;11.20;72.30;;;;;;4998108;28;20036;-62
2022/03/26 03:54:48;;;;;;;32.88;18.95;;;11.20;72.50;;;;;;4992163;28;20033;-62
2022/03/26 03:57:14;;;;;;;28.50;18.23;;;11.10;72.60;;;;;;4993168;28;20076;-62
2022/03/26 03:59:41;;;;;;;33.38;18.80;;;11.20;72.60;;;;;;4998815;28;20072;-62
2022/03/26 04:02:10;;;;;;;29.92;18.98;;;11.10;72.90;;;;;;5002063;28;20105;-62
2022/03/26 04:04:42;;;;;;;34.15;19.17;;;11.10;73.00;;;;;;4992708;28;20500;-62
2022/03/26 04:07:08;;;;;;;33.35;19.48;;;11.10;73.50;;;;;;5002416;28;20409;-62
2022/03/26 04:09:35;;;;;;;30.30;18.30;;;11.10;73.50;;;;;;5005817;28;20030;-62
2022/03/26 04:12:01;;;;;;;30.02;18.38;;;11.10;73.50;;;;;;5001512;28;20058;-62
2022/03/26 04:14:28;;;;;;;31.23;17.77;;;11.10;73.50;;;;;;5007686;28;20516;-62
2022/03/26 04:16:53;;;;;;;34.88;20.20;;;11.10;73.50;;;;;;5000709;28;20049;-62
2022/03/26 04:19:19;;;;;;;36.17;19.88;;;11.00;73.70;;;;;;5010578;28;20029;-62
2022/03/26 04:21:45;;;;;;;33.83;18.77;;;11.10;73.60;;;;;;5002589;28;20113;-62
2022/03/26 04:24:10;;;;;;;33.13;18.52;;;11.10;73.70;;;;;;4991808;28;20034;-62
2022/03/26 04:26:36;;;;;;;33.20;20.25;;;11.10;73.80;;;;;;4997914;28;20030;-62
2022/03/26 04:29:02;;;;;;;33.45;20.73;;;11.10;73.90;;;;;;4992644;28;20030;-62
2022/03/26 04:31:28;;;;;;;34.97;20.90;;;11.00;73.90;;;;;;4999992;28;20413;-62
2022/03/26 04:33:53;;;;;;;31.45;19.45;;;11.00;74.10;;;;;;5002267;28;20073;-62
2022/03/26 04:36:20;;;;;;;33.60;19.08;;;11.00;74.20;;;;;;4999440;28;20470;-62
2022/03/26 04:38:47;;;;;;;33.83;19.15;;;11.00;74.30;;;;;;5009863;28;20096;-62
2022/03/26 04:41:14;;;;;;;31.92;20.00;;;10.90;74.60;;;;;;5009760;28;20056;-62
2022/03/26 04:43:39;;;;;;;33.33;19.90;;;10.90;74.70;;;;;;5011413;28;20504;-62
2022/03/26 04:46:05;;;;;;;34.25;20.23;;;10.90;74.80;;;;;;5008871;28;20109;-63
2022/03/26 04:48:31;;;;;;;34.63;20.33;;;10.90;74.80;;;;;;5011359;28;20030;-62
2022/03/26 04:50:57;;;;;;;35.85;21.02;;;10.80;74.70;;;;;;5008697;28;20030;-62
2022/03/26 04:53:22;;;;;;;36.67;20.80;;;10.80;74.80;;;;;;5011433;28;20347;-62
2022/03/26 04:55:48;;;;;;;35.75;20.85;;;10.80;74.90;;;;;;5004418;28;20044;-62
2022/03/26 04:58:13;;;;;;;38.60;20.52;;;10.80;74.90;;;;;;5008827;28;20096;-62
2022/03/26 05:00:40;;;;;;;35.38;21.60;;;10.70;75.30;;;;;;4990890;28;20026;-62
2022/03/26 05:03:05;;;;;;;38.92;21.80;;;10.60;75.80;;;;;;5009577;28;20044;-62
2022/03/26 05:05:31;;;;;;;40.80;22.60;;;10.60;75.80;;;;;;4991229;28;20537;-62
2022/03/26 05:07:59;;;;;;;41.75;22.83;;;10.60;75.80;;;;;;5008553;28;20073;-62
2022/03/26 05:10:28;;;;;;;41.80;23.35;;;10.60;75.90;;;;;;4991999;28;20032;-63
2022/03/26 05:12:55;;;;;;;38.45;22.30;;;10.60;76.00;;;;;;4999042;28;20034;-63
2022/03/26 05:15:23;;;;;;;44.63;22.63;;;10.60;76.10;;;;;;4991365;28;20031;-62
2022/03/26 05:17:50;;;;;;;39.10;21.73;;;10.60;76.30;;;;;;5006918;28;20109;-62
2022/03/26 05:20:15;;;;;;;36.42;22.52;;;10.60;76.30;;;;;;5010568;28;20077;-61
2022/03/26 05:22:43;;;;;;;37.72;22.48;;;10.60;76.30;;;;;;5002666;28;20069;-62
2022/03/26 05:25:09;;;;;;;35.78;21.70;;;10.60;76.40;;;;;;4990734;28;20030;-61
2022/03/26 05:27:35;;;;;;;38.67;22.80;;;10.60;76.50;;;;;;4992223;28;20034;-61
2022/03/26 05:30:02;;;;;;;36.45;21.67;;;10.60;76.60;;;;;;4991128;28;20023;-63
2022/03/26 05:32:28;;;;;;;41.70;24.17;;;10.60;76.70;;;;;;4991924;28;20100;-63
2022/03/26 05:34:53;;;;;;;39.20;23.98;;;10.60;76.80;;;;;;4992933;28;20027;-62
2022/03/26 05:37:19;;;;;;;42.03;23.02;;;10.60;76.90;;;;;;5007328;28;20030;-62
2022/03/26 05:39:45;;;;;;;44.67;24.08;;;10.60;76.80;;;;;;5009953;28;20516;-62
2022/03/26 05:42:12;;;;;;;45.30;23.85;;;10.60;76.90;;;;;;4999735;28;20421;-63
2022/03/26 05:44:37;;;;;;;44.75;24.67;;;10.60;77.10;;;;;;4991019;28;20030;-63
2022/03/26 05:47:03;;;;;;;42.95;23.33;;;10.60;77.00;;;;;;4991154;28;20023;-62
2022/03/26 05:49:29;;;;;;;39.38;23.15;;;10.70;77.10;;;;;;4990807;28;20030;-63
2022/03/26 05:51:54;;;;;;;39.97;24.50;;;10.70;77.00;;;;;;4994295;28;20030;-62
2022/03/26 05:54:20;;;;;;;43.95;25.00;;;10.70;77.00;;;;;;4991015;28;20048;-63
2022/03/26 05:56:51;;;;;;;41.58;25.63;;;10.70;77.10;;;;;;4997654;28;20459;-62
2022/03/26 05:59:18;;;;;;;41.80;23.45;;;10.70;77.30;;;;;;4994953;28;20494;-63
2022/03/26 06:01:43;;;;;;;38.15;22.95;;;10.70;77.60;;;;;;4991689;28;20478;-62
2022/03/26 06:04:09;;;;;;;40.80;24.10;;;10.70;77.30;;;;;;5002115;28;20076;-63
2022/03/26 06:06:34;;;;;;;39.40;23.20;;;10.70;77.30;;;;;;5003506;28;20565;-63
2022/03/26 06:09:00;;;;;;;44.90;24.73;;;10.70;77.40;;;;;;5001012;28;20037;-62
2022/03/26 06:11:25;;;;;;;38.60;24.17;;;10.70;77.40;;;;;;4995803;28;20105;-62
2022/03/26 06:13:51;;;;;;;35.50;21.13;;;10.80;77.40;;;;;;4993798;28;20033;-63
2022/03/26 06:16:16;;;;;;;38.10;22.85;;;10.80;77.50;;;;;;4994162;28;20109;-63
2022/03/26 06:18:42;;;;;;;39.88;24.05;;;10.80;77.50;;;;;;4994004;28;20030;-63
2022/03/26 06:21:08;;;;;;;35.08;21.73;;;10.80;77.50;;;;;;4992704;28;20078;-63
2022/03/26 06:23:33;;;;;;;41.72;23.15;;;10.80;77.60;;;;;;4995441;28;20054;-63
2022/03/26 06:25:59;;;;;;;41.60;24.20;;;10.80;77.50;;;;;;5013751;28;20366;-63
2022/03/26 06:28:25;;;;;;;44.00;24.40;;;10.80;77.70;;;;;;5003365;28;20045;-63
2022/03/26 06:30:51;;;;;;;41.65;24.15;;;10.80;77.60;;;;;;5012315;28;20359;-63
2022/03/26 06:33:18;;;;;;;38.80;22.67;;;10.80;77.70;;;;;;4993537;28;20390;-63
2022/03/26 06:35:47;;;;;;;40.92;24.48;;;10.90;77.90;;;;;;4997601;28;20048;-63
2022/03/26 06:38:12;;;;;;;38.40;24.38;;;10.90;78.20;;;;;;4995100;28;20035;-63
2022/03/26 06:40:38;;;;;;;42.00;22.73;;;10.90;78.00;;;;;;4992357;28;20034;-63
2022/03/26 06:43:07;;;;;;;44.17;24.55;;;10.90;78.10;;;;;;5024088;28;20037;-63
2022/03/26 06:45:34;;;;;;;40.53;23.00;;;10.90;78.10;;;;;;5032413;28;20030;-62
2022/03/26 06:48:00;;;;;;;36.60;22.80;;;10.90;78.20;;;;;;5009740;28;20029;-63
2022/03/26 06:50:25;;;;;;;39.60;22.45;;;11.00;78.40;;;;;;5004859;28;20362;-62
2022/03/26 06:52:52;;;;;;;36.30;21.80;;;11.00;78.40;;;;;;4993534;28;20034;-63
2022/03/26 06:55:17;;;;;;;38.72;22.92;;;11.00;78.40;;;;;;5000113;28;20529;-63
2022/03/26 06:57:43;;;;;;;40.53;21.10;;;11.00;78.40;;;;;;5003957;28;20088;-63
2022/03/26 07:00:10;;;;;;;37.85;22.88;;;11.10;78.40;;;;;;5005448;28;20132;-62
2022/03/26 07:02:36;;;;;;;37.92;22.50;;;11.10;78.40;;;;;;5010891;28;20056;-63
2022/03/26 07:05:03;;;;;;;33.72;21.00;;;11.20;78.30;;;;;;5013563;28;20026;-63
2022/03/26 07:07:29;;;;;;;35.88;23.08;;;11.20;78.40;;;;;;5027088;28;20076;-63
2022/03/26 07:09:54;;;;;;;34.10;21.90;;;11.20;78.40;;;;;;5013286;28;20069;-62
2022/03/26 07:12:20;;;;;;;35.97;21.45;;;11.30;78.30;;;;;;5011715;28;20053;-62
2022/03/26 07:14:46;;;;;;;32.35;20.83;;;11.30;78.20;;;;;;5009320;28;20056;-62
2022/03/26 07:17:11;;;;;;;35.88;20.50;;;11.40;78.40;;;;;;5000891;28;20038;-62
2022/03/26 07:19:37;;;;;;;35.75;20.63;;;11.40;78.20;;;;;;5005807;28;20485;-62
2022/03/26 07:22:03;;;;;;;34.00;20.75;;;11.40;78.30;;;;;;5007388;28;20490;-62
2022/03/26 07:24:28;;;;;;;41.00;22.45;;;11.50;78.20;;;;;;5003475;28;20113;-62
2022/03/26 07:26:53;;;;;;;35.28;20.90;;;11.60;78.00;;;;;;5008383;28;20030;-63
2022/03/26 07:29:19;;;;;;;38.63;20.67;;;11.70;78.00;;;;;;5003813;28;20029;-62
2022/03/26 07:31:45;;;;;;;35.33;23.15;;;11.60;77.90;;;;;;5007200;28;20081;-62
2022/03/26 07:34:12;;;;;;;38.65;22.50;;;11.70;77.90;;;;;;5003458;28;20034;-62
2022/03/26 07:36:37;;;;;;;33.85;20.45;;;11.70;77.80;;;;;;4998812;28;20046;-62
2022/03/26 07:39:03;;;;;;;36.50;21.23;;;11.80;77.90;;;;;;4998258;28;20088;-62
2022/03/26 07:41:28;;;;;;;33.42;20.58;;;11.80;77.80;;;;;;5002754;28;20442;-63
2022/03/26 07:43:54;;;;;;;35.17;22.08;;;11.90;77.90;;;;;;5000268;28;20034;-62
2022/03/26 07:46:21;;;;;;;37.75;21.77;;;12.00;77.80;;;;;;4997667;28;20026;-62
2022/03/26 07:48:47;;;;;;;33.80;20.35;;;12.00;77.80;;;;;;5004013;28;20050;-62
2022/03/26 07:51:12;;;;;;;32.05;21.30;;;12.10;77.80;;;;;;4998413;28;20118;-62
2022/03/26 07:53:38;;;;;;;31.83;20.10;;;12.10;77.90;;;;;;5003069;28;20052;-62
2022/03/26 07:56:03;;;;;;;33.08;18.48;;;12.20;77.70;;;;;;5009609;28;20037;-62
2022/03/26 07:58:29;;;;;;;36.03;21.23;;;12.30;77.50;;;;;;4994140;28;20474;-62
2022/03/26 08:00:55;;;;;;;37.22;22.73;;;12.30;77.40;;;;;;4993792;28;20104;-62
2022/03/26 08:03:20;;;;;;;34.17;21.05;;;12.40;77.30;;;;;;4998623;28;20018;-62
2022/03/26 08:05:46;;;;;;;34.70;20.35;;;12.40;77.20;;;;;;5005494;28;20033;-62
2022/03/26 08:08:11;;;;;;;36.83;20.55;;;12.50;77.30;;;;;;5009106;28;20489;-62
2022/03/26 08:10:37;;;;;;;34.40;21.30;;;12.50;77.20;;;;;;5014018;28;20108;-62
2022/03/26 08:13:03;;;;;;;35.17;21.25;;;12.50;77.20;;;;;;4992606;28;20054;-62
2022/03/26 08:15:28;;;;;;;34.28;20.98;;;12.60;77.20;;;;;;4991721;28;20041;-62
2022/03/26 08:17:54;;;;;;;30.95;19.45;;;12.70;77.70;;;;;;5007191;28;20029;-62
2022/03/26 08:20:20;;;;;;;34.63;21.50;;;12.80;77.20;;;;;;5006634;28;20030;-62
2022/03/26 08:22:45;;;;;;;30.52;20.23;;;12.80;77.20;;;;;;5005684;28;20736;-62
2022/03/26 08:25:11;;;;;;;34.58;19.60;;;12.80;77.20;;;;;;5000310;28;20030;-62
2022/03/26 08:27:38;;;;;;;29.33;20.15;;;12.90;77.20;;;;;;5010414;28;20456;-62
2022/03/26 08:30:07;;;;;;;32.28;19.40;;;13.00;77.00;;;;;;5011556;28;20737;-63
2022/03/26 08:32:33;;;;;;;30.88;19.02;;;13.10;76.90;;;;;;5001258;28;20033;-62
2022/03/26 08:34:58;;;;;;;34.50;21.02;;;13.10;76.70;;;;;;4990816;28;20041;-61
2022/03/26 08:37:24;;;;;;;28.20;18.83;;;13.20;76.60;;;;;;4998273;28;20477;-63
2022/03/26 08:39:49;;;;;;;37.05;20.63;;;13.30;76.40;;;;;;5004258;28;20042;-63
2022/03/26 08:42:15;;;;;;;29.75;18.02;;;13.30;76.40;;;;;;5004577;28;20110;-63
2022/03/26 08:44:40;;;;;;;32.47;17.83;;;13.40;76.40;;;;;;5006002;28;20026;-63
2022/03/26 08:47:06;;;;;;;29.02;17.45;;;13.50;76.40;;;;;;5001989;28;20386;-62
2022/03/26 08:49:33;;;;;;;25.10;16.75;;;13.50;76.30;;;;;;5006659;28;20088;-62
2022/03/26 08:51:59;;;;;;;25.90;16.50;;;13.70;76.20;;;;;;4997272;28;20508;-62
2022/03/26 08:54:24;;;;;;;31.00;17.05;;;13.90;76.10;;;;;;4999810;28;20033;-62
2022/03/26 08:56:50;;;;;;;27.38;16.95;;;14.10;75.70;;;;;;5001868;28;20034;-62
2022/03/26 08:59:15;;;;;;;27.45;16.45;;;14.20;75.30;;;;;;5007932;28;20042;-62
2022/03/26 09:01:41;;;;;;;27.27;17.38;;;14.40;75.00;;;;;;4996192;28;20095;-63
2022/03/26 09:04:06;;;;;;;25.05;15.00;;;14.50;74.50;;;;;;5006935;28;20022;-62
2022/03/26 09:06:32;;;;;;;26.08;16.73;;;14.60;74.20;;;;;;5001145;28;20041;-62
2022/03/26 09:08:58;;;;;;;25.83;15.80;;;14.60;74.00;;;;;;5009183;28;20025;-62
2022/03/26 09:11:24;;;;;;;27.50;16.25;;;14.70;73.80;;;;;;5016993;28;20124;-62
2022/03/26 09:13:50;;;;;;;23.77;16.27;;;14.80;73.80;;;;;;5008514;28;20425;-63
2022/03/26 09:16:17;;;;;;;23.58;14.57;;;14.80;73.70;;;;;;5003559;28;20029;-63
2022/03/26 09:18:42;;;;;;;26.48;16.63;;;14.90;73.40;;;;;;5002900;28;20038;-63
2022/03/26 09:21:08;;;;;;;24.73;15.52;;;15.00;73.10;;;;;;5008280;28;20037;-63
2022/03/26 09:23:33;;;;;;;26.25;16.23;;;15.00;72.80;;;;;;4993734;28;20092;-62
2022/03/26 09:26:00;;;;;;;23.27;16.25;;;15.00;72.90;;;;;;4993830;28;20124;-62
2022/03/26 09:28:26;;;;;;;23.90;15.95;;;15.10;73.40;;;;;;4991343;28;20189;-62
2022/03/26 09:30:52;;;;;;;25.10;13.90;;;15.10;73.10;;;;;;4996714;28;20030;-62
2022/03/26 09:33:17;;;;;;;23.17;13.93;;;15.20;73.20;;;;;;5009607;28;20034;-62
2022/03/26 09:35:43;;;;;;;21.77;14.10;;;15.30;73.20;;;;;;4995663;28;20023;-63
2022/03/26 09:38:08;;;;;;;22.10;13.30;;;15.40;73.10;;;;;;5006605;28;20113;-62
2022/03/26 09:40:36;;;;;;;23.08;14.77;;;15.40;73.10;;;;;;5003149;28;20031;-61
2022/03/26 09:43:01;;;;;;;19.70;13.23;;;15.50;72.90;;;;;;5002640;28;20085;-62
2022/03/26 09:45:27;;;;;;;20.58;13.43;;;15.50;73.00;;;;;;5009850;28;20556;-61
2022/03/26 09:47:54;;;;;;;21.13;12.95;;;15.60;73.00;;;;;;5011253;28;20049;-62
2022/03/26 09:50:21;;;;;;;16.92;11.32;;;15.70;73.00;;;;;;5004700;28;20038;-63
2022/03/26 09:52:48;;;;;;;19.50;11.90;;;15.70;73.20;;;;;;5008487;28;20540;-63
2022/03/26 09:55:18;;;;;;;18.98;10.07;;;15.60;73.30;;;;;;5005522;28;20045;-62
2022/03/26 09:57:43;;;;;;;18.90;11.93;;;15.70;74.10;;;;;;5009857;28;20340;-62
2022/03/26 10:00:09;;;;;;;18.75;11.95;;;15.80;73.50;;;;;;5007075;28;20120;-62
2022/03/26 10:02:35;;;;;;;20.05;12.43;;;15.90;73.20;;;;;;4997208;28;20114;-62
2022/03/26 10:05:02;;;;;;;19.88;12.63;;;16.00;73.20;;;;;;4997702;28;20164;-62
2022/03/26 10:07:29;;;;;;;18.58;11.55;;;16.10;72.90;;;;;;5006370;28;20150;-62
2022/03/26 10:09:56;;;;;;;19.13;11.70;;;16.20;72.60;;;;;;5011848;28;20049;-63
2022/03/26 10:12:24;;;;;;;20.63;12.82;;;16.30;72.50;;;;;;5011417;28;20076;-62
2022/03/26 10:15:04;;;;;;;26.58;13.70;;;16.30;72.20;;;;;;5008421;28;20042;-63
2022/03/26 10:17:31;;;;;;;21.20;12.55;;;16.40;72.00;;;;;;5006920;28;20037;-63
2022/03/26 10:20:12;;;;;;;21.50;13.07;;;16.30;72.10;;;;;;5007506;28;20466;-63
2022/03/26 10:22:44;;;;;;;21.40;13.38;;;16.40;72.10;;;;;;5007585;28;20029;-62
2022/03/26 10:25:18;;;;;;;19.05;12.75;;;16.40;71.80;;;;;;5011212;28;20312;-63
2022/03/26 10:27:48;;;;;;;22.77;13.38;;;16.50;71.80;;;;;;5006955;28;20327;-62
2022/03/26 10:30:16;;;;;;;23.52;14.73;;;16.50;72.10;;;;;;5013608;28;20464;-62
2022/03/26 10:32:49;;;;;;;24.42;14.38;;;16.50;71.30;;;;;;4998824;28;20083;-62
2022/03/26 10:35:23;;;;;;;22.60;13.55;;;16.60;71.30;;;;;;5005193;28;20493;-63
2022/03/26 10:38:00;;;;;;;21.77;14.45;;;16.60;71.30;;;;;;5007435;28;20052;-64
2022/03/26 10:40:29;;;;;;;19.83;13.30;;;16.60;71.30;;;;;;5007821;28;20532;-62
2022/03/26 10:43:03;;;;;;;21.98;14.75;;;16.70;71.30;;;;;;5001893;28;20030;-63
2022/03/26 10:45:30;;;;;;;20.60;13.90;;;16.80;71.10;;;;;;5013119;28;20566;-62
2022/03/26 10:47:58;;;;;;;23.02;14.70;;;16.80;71.00;;;;;;5010790;28;20048;-63
2022/03/26 10:50:32;;;;;;;25.80;15.88;;;16.70;71.00;;;;;;5001083;28;20057;-62
2022/03/26 10:53:03;;;;;;;24.73;14.95;;;16.80;71.10;;;;;;5010783;28;20022;-63
2022/03/26 10:55:29;;;;;;;22.85;14.57;;;16.80;71.00;;;;;;4996860;28;20076;-62
2022/03/26 10:57:55;;;;;;;21.77;14.23;;;16.90;71.30;;;;;;4996272;28;20038;-63
2022/03/26 11:00:21;;;;;;;28.77;14.20;;;16.90;71.40;;;;;;4999762;28;20714;-63
2022/03/26 11:02:48;;;;;;;23.27;15.73;;;16.80;71.50;;;;;;5010232;28;20091;-62
2022/03/26 11:05:13;;;;;;;23.83;15.55;;;16.90;71.70;;;;;;5004457;28;20037;-63
2022/03/26 11:07:42;;;;;;;23.88;15.23;;;16.90;71.70;;;;;;5006612;28;20041;-62
2022/03/26 11:10:11;;;;;;;27.45;15.73;;;16.90;71.80;;;;;;4996410;28;20037;-62
2022/03/26 11:12:45;;;;;;;24.15;14.50;;;16.90;71.90;;;;;;5009299;28;20094;-62
2022/03/26 11:15:26;;;;;;;20.20;14.20;;;16.90;71.90;;;;;;4996606;28;20031;-63
2022/03/26 11:17:58;;;;;;;24.10;16.88;;;16.90;71.80;;;;;;4998369;28;20027;-63
2022/03/26 11:20:59;;;;;;;22.65;15.32;;;16.90;71.70;;;;;;5002113;28;20056;-62
2022/03/26 11:24:00;;;;;;;27.02;16.27;;;16.80;71.90;;;;;;5001197;28;20033;-63
2022/03/26 11:27:01;;;;;;;22.05;14.85;;;16.80;71.90;;;;;;5005099;28;20026;-63
2022/03/26 11:29:51;;;;;;;26.48;15.88;;;16.80;71.90;;;;;;5005938;28;20036;-63
2022/03/26 11:32:31;;;;;;;22.55;15.85;;;16.90;71.60;;;;;;5010285;28;20040;-63
2022/03/26 11:35:02;;;;;;;22.65;15.68;;;16.80;71.50;;;;;;5011630;28;20045;-63
2022/03/26 11:37:29;;;;;;;25.63;15.85;;;16.80;71.70;;;;;;4997447;28;20034;-63
2022/03/26 11:39:58;;;;;;;23.77;17.20;;;16.80;71.80;;;;;;5000946;28;20124;-63
2022/03/26 11:42:37;;;;;;;25.52;17.15;;;16.80;71.90;;;;;;4998809;28;20033;-63
2022/03/26 11:51:19;;;;;;;27.95;17.35;;;17.10;71.80;;;;;;5004742;28;20088;-63
2022/03/26 11:53:48;;;;;;;23.80;15.25;;;17.10;71.50;;;;;;5003816;28;20513;-62
2022/03/26 11:56:28;;;;;;;27.55;16.85;;;17.20;71.50;;;;;;5000326;28;20409;-63
2022/03/26 11:59:06;;;;;;;27.60;16.27;;;17.20;71.40;;;;;;4998183;28;20049;-64
2022/03/26 12:01:37;;;;;;;26.88;16.80;;;17.30;71.50;;;;;;5002936;28;20050;-63
2022/03/26 12:04:13;;;;;;;27.75;17.67;;;17.30;71.30;;;;;;5006219;28;20040;-63
2022/03/26 12:06:51;;;;;;;30.20;17.83;;;17.30;71.10;;;;;;4997089;28;20045;-63
2022/03/26 12:09:34;;;;;;;27.45;17.35;;;17.20;71.30;;;;;;4998398;28;20045;-65
2022/03/26 12:12:06;;;;;;;27.55;18.20;;;17.10;71.40;;;;;;5009785;28;20034;-64
2022/03/26 12:14:32;;;;;;;26.10;17.65;;;17.00;71.50;;;;;;5009307;28;20116;-64
2022/03/26 12:16:57;;;;;;;27.48;18.27;;;17.00;71.80;;;;;;5006564;28;20087;-64
2022/03/26 12:19:41;;;;;;;27.83;18.08;;;16.90;72.10;;;;;;5010499;28;20465;-64
2022/03/26 12:22:26;;;;;;;28.75;19.08;;;16.80;72.20;;;;;;5006457;28;20378;-64
2022/03/26 12:24:58;;;;;;;25.70;16.55;;;16.80;72.30;;;;;;5010355;28;20037;-63
2022/03/26 12:27:24;;;;;;;30.98;20.23;;;16.90;72.50;;;;;;5006580;28;20030;-63
2022/03/26 12:29:53;;;;;;;32.72;19.67;;;16.90;72.50;;;;;;5010353;28;20107;-63
2022/03/26 12:32:20;;;;;;;32.28;19.58;;;16.80;72.50;;;;;;4997060;28;20040;-63
2022/03/26 12:35:04;;;;;;;28.90;20.35;;;16.70;72.70;;;;;;5009325;28;20025;-63